Time;durP1;ratioP1;P1;durP2;ratioP2;P2;SDS_P1;SDS_P2;PMS_P1;PMS_P2;Temp;Humidity;BMP_temperature;BMP_pressure;BME280_temperature;BME280_humidity;BME280_pressure;Samples;Min_cycle;Max_cycle;Signal;HPM_P1;HPM_P2
2022/05/27 00:02:14;;;;;;;7.22;5.03;;;;;;;19.36;48.34;97393.75;4993071;28;20522;-72
2022/05/27 00:04:40;;;;;;;7.93;5.03;;;;;;;19.43;48.21;97391.59;4993285;28;20069;-72
2022/05/27 00:07:06;;;;;;;8.13;6.03;;;;;;;19.25;48.36;97365.97;5009419;28;20045;-73
2022/05/27 00:09:32;;;;;;;9.15;5.90;;;;;;;19.41;48.25;97389.19;4993170;28;20484;-74
2022/05/27 00:11:58;;;;;;;7.28;5.95;;;;;;;19.31;48.58;97399.94;4977195;28;20415;-74
2022/05/27 00:14:24;;;;;;;5.93;4.50;;;;;;;19.51;48.16;97408.03;5010396;28;20041;-74
2022/05/27 00:16:49;;;;;;;5.50;3.60;;;;;;;19.59;47.76;97414.75;5009655;28;20147;-72
2022/05/27 00:19:16;;;;;;;5.57;3.03;;;;;;;19.51;47.70;97418.00;5025751;28;20049;-72
2022/05/27 00:21:42;;;;;;;3.72;2.63;;;;;;;19.37;47.51;97417.69;5009258;28;20451;-72
2022/05/27 00:24:08;;;;;;;6.18;2.80;;;;;;;19.36;47.52;97417.97;4992771;28;20121;-72
2022/05/27 00:26:34;;;;;;;2.38;2.05;;;;;;;19.45;47.22;97427.16;5010336;28;20049;-72
2022/05/27 00:29:00;;;;;;;2.88;1.83;;;;;;;19.40;47.01;97432.53;5012874;28;20049;-72
2022/05/27 00:31:25;;;;;;;3.33;2.22;;;;;;;19.36;47.10;97436.81;5013251;28;20121;-72
2022/05/27 00:33:51;;;;;;;4.47;2.10;;;;;;;19.17;47.79;97439.19;5013063;28;20491;-72
2022/05/27 00:36:17;;;;;;;3.58;2.08;;;;;;;19.31;47.44;97439.50;5013376;28;20050;-73
2022/05/27 00:38:44;;;;;;;4.55;1.90;;;;;;;19.35;47.16;97429.81;4980446;28;20073;-73
2022/05/27 00:41:11;;;;;;;2.40;1.70;;;;;;;19.33;46.81;97435.47;5012945;28;20041;-72
2022/05/27 00:43:39;;;;;;;3.25;2.10;;;;;;;19.43;47.05;97442.75;5028268;28;20049;-73
2022/05/27 00:46:12;;;;;;;2.85;1.88;;;;;;;19.39;47.26;97441.69;5010190;28;20059;-74
2022/05/27 00:48:39;;;;;;;4.60;1.80;;;;;;;19.33;47.19;97442.72;5010256;28;20137;-72
2022/05/27 00:51:13;;;;;;;2.55;1.63;;;;;;;19.22;47.45;97414.97;4994163;28;20491;-72
2022/05/27 00:53:42;;;;;;;2.08;1.30;;;;;;;19.22;47.37;97406.09;5010292;28;20175;-71
2022/05/27 00:56:09;;;;;;;1.77;1.35;;;;;;;19.07;47.63;97422.19;4977804;28;20100;-73
2022/05/27 00:58:50;;;;;;;1.50;1.40;;;;;;;19.40;46.85;97443.28;5026528;28;20057;-73
2022/05/27 01:01:16;;;;;;;2.08;1.77;;;;;;;19.22;47.18;97451.84;5028358;28;20096;-72
2022/05/27 01:03:42;;;;;;;1.58;1.40;;;;;;;19.30;46.90;97454.03;4979936;28;20408;-72
2022/05/27 01:06:08;;;;;;;2.42;1.35;;;;;;;19.21;47.10;97451.03;5013416;28;20053;-72
2022/05/27 01:08:34;;;;;;;4.47;1.67;;;;;;;19.28;46.87;97451.59;5012019;28;20046;-73
2022/05/27 01:11:29;;;;;;;2.80;1.85;;;;;;;19.40;47.35;97452.19;4995678;28;20042;-72
2022/05/27 01:14:14;;;;;;;2.75;1.80;;;;;;;19.39;47.03;97452.44;5010695;28;20050;-73
2022/05/27 01:17:08;;;;;;;2.50;1.90;;;;;;;19.36;46.81;97445.69;5011717;28;20127;-72
2022/05/27 01:22:44;;;;;;;2.00;1.80;;;;;;;19.43;46.57;97448.13;5012230;28;20054;-72
2022/05/27 01:25:47;;;;;;;2.75;1.65;;;;;;;19.57;46.04;97447.34;5028491;28;20500;-74
2022/05/27 01:28:13;;;;;;;2.55;1.60;;;;;;;19.25;46.69;97452.09;4995920;28;20049;-73
2022/05/27 01:31:20;;;;;;;2.40;1.63;;;;;;;19.35;46.77;97445.97;5011573;28;20065;-73
2022/05/27 01:34:07;;;;;;;3.05;1.80;;;;;;;19.40;46.62;97445.97;4990510;28;20419;-72
2022/05/27 01:36:39;;;;;;;2.10;1.90;;;;;;;19.39;46.55;97457.84;4979183;28;20049;-72
2022/05/27 01:39:14;;;;;;;2.85;1.52;;;;;;;19.29;46.36;97434.41;5010907;28;20133;-72
2022/05/27 01:41:46;;;;;;;1.77;1.55;;;;;;;19.34;46.60;97453.22;5011697;28;20562;-72
2022/05/27 01:44:22;;;;;;;1.70;1.60;;;;;;;19.22;46.44;97435.69;5011298;28;20406;-71
2022/05/27 01:46:49;;;;;;;5.22;1.48;;;;;;;19.16;46.29;97451.00;5011471;28;20050;-72
2022/05/27 01:49:35;;;;;;;2.92;1.60;;;;;;;19.38;45.96;97450.81;5011584;28;20037;-71
2022/05/27 01:52:22;;;;;;;2.17;1.67;;;;;;;19.40;46.26;97457.56;5011063;28;20038;-72
2022/05/27 01:54:56;;;;;;;1.73;1.50;;;;;;;19.32;46.38;97447.31;5011328;28;20038;-72
2022/05/27 01:57:32;;;;;;;2.13;1.60;;;;;;;19.13;46.43;97448.03;4978901;28;20518;-73
2022/05/27 02:00:05;;;;;;;1.85;1.40;;;;;;;19.21;46.17;97461.78;4962630;28;20052;-72
2022/05/27 02:02:34;;;;;;;1.60;1.50;;;;;;;19.15;46.28;97462.84;5011057;28;20077;-73
2022/05/27 02:05:08;;;;;;;3.15;1.80;;;;;;;19.41;45.93;97467.25;5011142;28;20460;-73
2022/05/27 02:07:50;;;;;;;2.15;1.50;;;;;;;19.38;45.86;97462.41;5011215;28;20128;-73
2022/05/27 02:10:20;;;;;;;2.33;1.42;;;;;;;19.41;45.84;97461.03;4994681;28;20045;-73
2022/05/27 02:12:52;;;;;;;2.67;1.63;;;;;;;19.40;45.87;97459.44;5010850;28;20042;-74
2022/05/27 02:15:23;;;;;;;1.88;1.67;;;;;;;19.42;45.90;97460.78;5010797;28;20411;-73
2022/05/27 02:18:19;;;;;;;1.65;1.55;;;;;;;19.58;45.81;97458.91;5010827;28;20044;-72
2022/05/27 02:20:52;;;;;;;2.13;1.80;;;;;;;19.49;45.72;97434.41;4993476;28;20081;-73
2022/05/27 02:23:28;;;;;;;3.55;1.80;;;;;;;19.51;46.15;97463.78;5010826;28;20057;-73
2022/05/27 02:25:54;;;;;;;1.92;1.70;;;;;;;19.34;45.97;97441.66;4977707;28;20052;-74
2022/05/27 02:28:25;;;;;;;1.85;1.60;;;;;;;19.55;45.79;97462.97;4992945;28;20049;-74
2022/05/27 02:30:58;;;;;;;1.73;1.48;;;;;;;19.60;45.34;97459.47;4992205;28;20045;-73
2022/05/27 02:36:32;;;;;;;1.90;1.60;;;;;;;19.66;45.49;97453.81;5009699;28;20053;-74
2022/05/27 02:38:58;;;;;;;1.60;1.38;;;;;;;19.56;45.38;97461.06;5009468;28;20057;-75
2022/05/27 02:41:30;;;;;;;2.83;1.52;;;;;;;19.70;45.50;97468.34;5009136;28;20046;-74
2022/05/27 02:44:15;;;;;;;2.00;1.60;;;;;;;19.70;45.29;97470.22;5010202;28;20530;-74
2022/05/27 02:47:02;;;;;;;2.53;1.75;;;;;;;19.68;45.49;97470.50;5010296;28;20076;-74
2022/05/27 02:49:37;;;;;;;2.15;1.70;;;;;;;19.51;45.53;97458.38;5010659;28;20057;-74
2022/05/27 02:52:03;;;;;;;3.88;1.77;;;;;;;19.28;45.93;97461.56;5009794;28;20512;-72
2022/05/27 02:54:43;;;;;;;5.22;2.40;;;;;;;19.54;45.50;97466.72;5011605;28;20107;-73
2022/05/27 02:57:17;;;;;;;2.20;1.77;;;;;;;19.42;45.77;97466.16;4978432;28;20046;-73
2022/05/27 02:59:44;;;;;;;2.05;1.23;;;;;;;19.26;45.70;97463.69;5010026;28;20140;-72
2022/05/27 03:02:12;;;;;;;1.70;1.60;;;;;;;19.26;45.40;97432.22;5009921;28;20124;-72
2022/05/27 03:04:47;;;;;;;1.38;1.27;;;;;;;19.65;44.74;97459.47;5025968;28;20037;-73
2022/05/27 03:07:19;;;;;;;4.03;1.52;;;;;;;19.68;44.68;97465.13;5010026;28;20042;-72
2022/05/27 03:09:55;;;;;;;4.10;1.98;;;;;;;19.69;44.66;97469.44;4993599;28;20557;-71
2022/05/27 03:12:43;;;;;;;2.92;1.40;;;;;;;19.67;44.85;97479.66;4977475;28;20050;-71
2022/05/27 03:15:30;;;;;;;3.47;1.92;;;;;;;19.55;44.85;97471.03;5009883;28;20139;-73
2022/05/27 03:18:10;;;;;;;2.22;1.40;;;;;;;19.59;45.22;97474.00;5009871;28;20085;-70
2022/05/27 03:20:47;;;;;;;2.53;1.60;;;;;;;19.48;45.21;97462.41;5012115;28;20451;-70
2022/05/27 03:23:50;;;;;;;5.80;1.88;;;;;;;19.49;45.43;97482.06;5017045;28;20426;-70
2022/05/27 03:26:34;;;;;;;2.22;1.50;;;;;;;19.35;45.22;97472.88;5019882;28;20530;-70
2022/05/27 03:29:10;;;;;;;1.75;1.55;;;;;;;19.51;45.13;97461.09;4985040;28;20084;-70
2022/05/27 03:31:45;;;;;;;2.78;2.15;;;;;;;19.40;45.32;97471.03;5000743;28;20034;-70
2022/05/27 03:34:19;;;;;;;2.25;1.77;;;;;;;19.42;45.29;97470.75;5017013;28;20073;-71
2022/05/27 03:36:51;;;;;;;2.58;1.92;;;;;;;19.22;45.40;97479.53;5016749;28;20041;-71
2022/05/27 03:39:22;;;;;;;1.95;1.58;;;;;;;19.29;45.00;97468.56;5027245;28;20138;-70
2022/05/27 03:41:56;;;;;;;;;;;;;;;19.65;44.57;97473.72;5028426;28;20037;-72
2022/05/27 03:44:27;;;;;;;2.20;1.58;;;;;;;19.37;45.29;97470.75;5012132;28;19917;-70
2022/05/27 03:46:53;;;;;;;;;;;;;;;19.79;44.40;97482.09;4996280;28;20050;-71
2022/05/27 03:49:19;;;;;;;4.65;1.70;;;;;;;19.36;44.97;97467.22;4972304;28;19918;-72
2022/05/27 03:52:03;;;;;;;2.92;1.85;;;;;;;19.52;45.42;97478.84;4988107;28;20050;-71
2022/05/27 03:54:29;;;;;;;3.72;1.85;;;;;;;19.22;45.62;97478.75;4988023;28;20053;-70
2022/05/27 03:56:55;;;;;;;3.78;2.05;;;;;;;19.36;45.43;97475.31;4990613;28;20050;-72
2022/05/27 03:59:22;;;;;;;4.22;2.00;;;;;;;19.31;45.13;97461.84;4973230;28;20234;-71
2022/05/27 04:01:52;;;;;;;4.03;2.00;;;;;;;19.45;45.22;97471.00;4988714;28;20092;-70
2022/05/27 04:04:19;;;;;;;;;;;;;;;19.79;44.50;97484.78;5006209;28;20072;-71
2022/05/27 04:06:47;;;;;;;2.63;1.92;;;;;;;19.46;45.03;97479.91;4973357;28;20260;-74
2022/05/27 04:09:16;;;;;;;4.38;1.90;;;;;;;19.63;44.38;97485.88;4941432;28;20057;-74
2022/05/27 04:11:42;;;;;;;2.38;1.70;;;;;;;19.42;44.82;97485.00;4972354;28;20050;-74
2022/05/27 04:14:08;;;;;;;2.83;1.70;;;;;;;19.56;44.67;97479.91;4972857;28;20555;-74
2022/05/27 04:16:34;;;;;;;2.88;1.88;;;;;;;19.68;44.17;97483.97;4973422;28;20069;-74
2022/05/27 04:19:03;;;;;;;2.20;1.85;;;;;;;19.62;44.13;97468.09;4989303;28;20508;-72
2022/05/27 04:21:28;;;;;;;3.80;2.03;;;;;;;19.72;44.09;97486.94;4989441;28;20046;-72
2022/05/27 04:23:54;;;;;;;3.85;2.20;;;;;;;19.58;43.90;97453.53;4957059;28;20038;-72
2022/05/27 04:26:20;;;;;;;2.75;1.90;;;;;;;19.59;44.51;97487.44;4956803;28;20042;-72
2022/05/27 04:28:46;;;;;;;2.03;1.80;;;;;;;19.57;44.69;97489.63;4972847;28;20416;-72
2022/05/27 04:31:12;;;;;;;2.58;2.08;;;;;;;19.27;45.44;97470.66;4972992;28;20088;-72
2022/05/27 04:33:38;;;;;;;3.47;1.90;;;;;;;19.41;45.17;97485.28;4989080;28;20050;-71
2022/05/27 04:36:04;;;;;;;3.55;1.88;;;;;;;19.36;45.13;97490.63;4956816;28;20458;-76
2022/05/27 04:38:30;;;;;;;3.05;2.20;;;;;;;19.58;45.23;97488.53;4957105;28;20620;-72
2022/05/27 04:40:56;;;;;;;3.80;1.67;;;;;;;19.69;45.08;97491.00;4956797;28;20140;-72
2022/05/27 04:43:22;;;;;;;2.03;1.77;;;;;;;19.83;44.53;97489.38;4988600;28;20358;-73
2022/05/27 04:45:48;;;;;;;2.25;1.90;;;;;;;20.18;44.09;97483.19;5000715;28;20057;-73
2022/05/27 04:48:17;;;;;;;3.00;1.52;;;;;;;20.16;44.03;97493.44;4974396;28;20056;-74
2022/05/27 04:50:43;;;;;;;2.35;1.88;;;;;;;20.06;43.80;97494.22;4973788;28;20048;-74
2022/05/27 04:53:10;;;;;;;2.30;1.50;;;;;;;20.17;43.78;97492.38;4974019;28;20050;-73
2022/05/27 04:55:37;;;;;;;2.35;1.80;;;;;;;20.20;44.46;97499.09;5007166;28;20046;-72
2022/05/27 04:58:03;;;;;;;4.22;1.98;;;;;;;20.08;44.01;97502.06;5007332;28;20088;-72
2022/05/27 05:00:34;;;;;;;3.15;1.95;;;;;;;20.11;44.27;97501.50;4989995;28;20057;-71
2022/05/27 05:03:00;;;;;;;3.97;1.88;;;;;;;19.90;44.33;97495.31;5008494;28;20839;-70
2022/05/27 05:05:28;;;;;;;2.30;1.90;;;;;;;20.02;44.38;97493.16;4990791;28;20040;-69
2022/05/27 05:08:06;;;;;;;3.58;2.30;;;;;;;20.29;43.60;97498.28;5007325;28;20049;-72
2022/05/27 05:10:32;;;;;;;3.08;2.30;;;;;;;20.02;44.10;97484.25;5007667;28;20042;-73
2022/05/27 05:12:58;;;;;;;2.65;2.20;;;;;;;20.21;43.58;97492.63;5022957;28;20136;-73
2022/05/27 05:15:26;;;;;;;2.40;2.10;;;;;;;20.42;43.37;97499.63;5009501;28;20552;-71
2022/05/27 05:17:52;;;;;;;4.22;2.25;;;;;;;20.47;43.10;97491.50;5026937;28;20527;-71
2022/05/27 05:20:24;;;;;;;2.55;2.20;;;;;;;20.80;42.96;97504.38;5009857;28;20066;-71
2022/05/27 05:22:50;;;;;;;2.47;2.05;;;;;;;20.36;42.91;97495.31;5010240;28;20564;-73
2022/05/27 05:25:16;;;;;;;4.30;2.35;;;;;;;20.47;42.83;97505.81;5009971;28;20045;-71
2022/05/27 05:27:42;;;;;;;2.88;2.35;;;;;;;20.45;42.61;97475.59;5009841;28;20038;-69
2022/05/27 05:30:11;;;;;;;2.47;2.25;;;;;;;20.49;42.42;97506.34;5012074;28;20061;-70
2022/05/27 05:32:37;;;;;;;2.63;2.17;;;;;;;20.27;43.06;97500.44;5010866;28;20123;-71
2022/05/27 05:35:03;;;;;;;2.75;2.42;;;;;;;19.99;43.00;97496.38;4977441;28;20538;-71
2022/05/27 05:37:29;;;;;;;3.85;2.80;;;;;;;19.83;43.73;97519.00;5011578;28;20115;-70
2022/05/27 05:39:55;;;;;;;4.68;2.55;;;;;;;19.69;44.16;97511.72;4977001;28;20158;-71
2022/05/27 05:42:21;;;;;;;3.15;2.40;;;;;;;19.54;43.88;97520.56;5010238;28;20046;-71
2022/05/27 05:44:46;;;;;;;2.97;2.58;;;;;;;19.58;43.74;97502.81;4977365;28;20495;-70
2022/05/27 05:47:12;;;;;;;4.18;2.58;;;;;;;19.45;43.56;97522.16;5009527;28;20466;-70
2022/05/27 05:49:38;;;;;;;5.15;2.42;;;;;;;19.76;43.56;97533.81;4977092;28;20533;-69
2022/05/27 05:52:04;;;;;;;3.13;2.60;;;;;;;20.27;42.56;97529.28;4993845;28;20040;-70
2022/05/27 05:54:30;;;;;;;2.75;2.35;;;;;;;20.59;41.92;97527.88;4977526;28;20048;-69
2022/05/27 05:57:00;;;;;;;2.50;2.22;;;;;;;21.28;40.95;97528.00;5009701;28;20876;-70
2022/05/27 05:59:30;;;;;;;2.50;2.30;;;;;;;21.78;39.69;97537.72;5009539;28;20069;-70
2022/05/27 06:01:57;;;;;;;3.08;2.25;;;;;;;21.86;39.26;97535.25;4977054;28;20041;-70
2022/05/27 06:04:23;;;;;;;4.22;2.00;;;;;;;22.13;38.95;97548.28;5009913;28;20053;-69
2022/05/27 06:06:48;;;;;;;2.25;2.05;;;;;;;22.23;38.92;97550.91;5025900;28;20128;-70
2022/05/27 06:09:18;;;;;;;2.00;1.80;;;;;;;22.24;38.46;97533.59;4993605;28;20490;-70
2022/05/27 06:11:46;;;;;;;2.70;1.88;;;;;;;22.36;37.59;97553.75;5008983;28;20048;-70
2022/05/27 06:14:12;;;;;;;4.30;2.03;;;;;;;22.35;36.74;97554.88;4993739;28;20038;-70
2022/05/27 06:16:38;;;;;;;2.90;2.40;;;;;;;22.63;36.83;97545.19;5010974;28;20486;-69
2022/05/27 06:19:04;;;;;;;4.18;2.20;;;;;;;22.62;36.52;97552.47;5009916;28;20046;-69
2022/05/27 06:21:29;;;;;;;2.40;1.70;;;;;;;22.53;36.42;97556.91;4993097;28;20535;-68
2022/05/27 06:23:55;;;;;;;2.90;1.98;;;;;;;22.27;36.48;97570.88;5009279;28;20064;-70
2022/05/27 06:26:23;;;;;;;3.90;1.70;;;;;;;22.28;36.94;97551.66;5010004;28;20045;-69
2022/05/27 06:34:27;;;;;;;1.67;1.58;;;;;;;22.01;37.02;97559.44;5009449;28;20045;-68
2022/05/27 06:37:02;;;;;;;2.03;1.65;;;;;;;21.95;36.86;97559.75;5010321;28;20424;-69
2022/05/27 06:39:29;;;;;;;2.33;1.90;;;;;;;21.88;36.82;97567.38;5008855;28;20048;-70
2022/05/27 06:41:55;;;;;;;1.98;1.77;;;;;;;21.80;37.02;97579.59;5008466;28;20053;-68
2022/05/27 06:44:30;;;;;;;2.38;1.70;;;;;;;21.71;36.82;97562.34;5008139;28;20096;-69
2022/05/27 06:46:56;;;;;;;2.83;1.60;;;;;;;21.84;36.55;97577.94;5009038;28;20089;-68
2022/05/27 06:49:22;;;;;;;2.83;1.90;;;;;;;21.74;36.66;97567.19;5009645;28;20129;-69
2022/05/27 06:51:48;;;;;;;3.40;1.90;;;;;;;21.73;36.91;97579.06;4993199;28;20046;-68
2022/05/27 06:54:15;;;;;;;2.25;1.58;;;;;;;21.91;36.52;97583.84;5010477;28;20165;-70
2022/05/27 06:56:43;;;;;;;3.38;1.60;;;;;;;21.77;36.32;97574.75;5010067;28;20046;-69
2022/05/27 06:59:09;;;;;;;1.73;1.63;;;;;;;21.73;36.93;97574.47;4992464;28;20050;-68
2022/05/27 07:01:35;;;;;;;3.40;1.70;;;;;;;21.75;36.91;97578.81;5010221;28;20140;-68
2022/05/27 07:04:02;;;;;;;2.15;1.52;;;;;;;21.62;37.20;97586.41;5009839;28;20073;-69
2022/05/27 07:06:33;;;;;;;1.88;1.58;;;;;;;21.70;37.56;97595.81;5009656;28;20057;-69
2022/05/27 07:09:01;;;;;;;3.33;1.80;;;;;;;21.20;37.50;97558.25;4992246;28;20143;-69
2022/05/27 07:11:27;;;;;;;2.35;1.70;;;;;;;21.40;37.22;97590.56;4975756;28;20505;-69
2022/05/27 07:13:53;;;;;;;2.50;1.70;;;;;;;21.31;37.53;97601.13;4991585;28;20042;-69
2022/05/27 07:16:19;;;;;;;2.03;1.70;;;;;;;21.39;37.52;97586.25;5008328;28;20045;-69
2022/05/27 07:18:45;;;;;;;7.00;1.80;;;;;;;21.68;37.41;97592.59;4992062;28;20049;-69
2022/05/27 07:21:10;;;;;;;4.28;1.83;;;;;;;21.76;36.62;97589.34;5008138;28;20088;-72
2022/05/27 07:23:36;;;;;;;2.67;1.88;;;;;;;22.23;35.87;97591.47;4992588;28;20086;-72
2022/05/27 07:26:02;;;;;;;3.03;1.92;;;;;;;23.04;34.47;97592.38;4992175;28;20058;-72
2022/05/27 07:28:28;;;;;;;2.97;1.63;;;;;;;23.67;33.19;97593.00;4976195;28;20882;-71
2022/05/27 07:30:55;;;;;;;5.10;1.60;;;;;;;24.68;31.51;97596.69;4976020;28;20046;-71
2022/05/27 07:33:21;;;;;;;2.97;2.40;;;;;;;25.75;29.84;97575.34;5009134;28;20053;-71
2022/05/27 07:35:47;;;;;;;5.97;1.70;;;;;;;26.85;27.49;97560.22;5024781;28;20045;-70
2022/05/27 07:38:13;;;;;;;4.72;1.80;;;;;;;28.38;25.67;97579.72;4992551;28;20112;-70
2022/05/27 07:40:40;;;;;;;5.10;1.65;;;;;;;29.46;23.90;97577.41;4991896;28;20487;-70
2022/05/27 07:43:09;;;;;;;2.65;1.30;;;;;;;30.12;22.33;97581.19;4960066;28;20073;-70
2022/05/27 07:45:40;;;;;;;5.40;1.50;;;;;;;29.28;22.62;97560.25;5009765;28;20095;-71
2022/05/27 07:48:10;;;;;;;2.85;1.40;;;;;;;28.03;24.70;97578.13;4976687;28;20050;-70
2022/05/27 07:50:36;;;;;;;2.33;1.60;;;;;;;27.39;25.23;97562.53;5007349;28;20057;-70
2022/05/27 07:53:03;;;;;;;5.05;1.60;;;;;;;26.40;26.66;97564.88;5007624;28;20049;-70
2022/05/27 07:55:29;;;;;;;3.72;1.50;;;;;;;25.52;27.63;97551.91;5024026;28;20164;-69
2022/05/27 07:57:55;;;;;;;2.80;1.60;;;;;;;25.08;28.65;97576.13;5009134;28;20100;-70
2022/05/27 08:00:30;;;;;;;5.47;1.27;;;;;;;25.06;28.86;97572.94;5007542;28;20430;-69
2022/05/27 08:02:56;;;;;;;1.38;1.27;;;;;;;24.07;30.22;97579.75;5008337;28;20041;-70
2022/05/27 08:05:25;;;;;;;4.25;1.40;;;;;;;23.69;31.59;97602.47;5007847;28;20423;-70
2022/05/27 08:07:52;;;;;;;3.35;1.48;;;;;;;22.53;34.18;97585.84;5007032;28;20418;-69
2022/05/27 08:10:21;;;;;;;4.45;1.60;;;;;;;22.68;34.36;97588.44;4991666;28;20061;-69
2022/05/27 08:12:49;;;;;;;1.55;1.45;;;;;;;22.30;35.22;97581.94;5008263;28;20046;-70
2022/05/27 08:15:16;;;;;;;2.78;1.40;;;;;;;22.28;35.38;97600.34;5008537;28;20579;-69
2022/05/27 08:17:41;;;;;;;4.28;1.50;;;;;;;22.23;35.32;97592.28;5009111;28;20046;-70
2022/05/27 08:20:10;;;;;;;1.60;1.50;;;;;;;22.27;35.68;97563.59;4975373;28;20091;-70
2022/05/27 08:22:36;;;;;;;1.90;1.40;;;;;;;22.87;34.25;97567.66;5009110;28;20042;-69
2022/05/27 08:25:04;;;;;;;1.67;1.40;;;;;;;23.97;32.60;97579.09;5007698;28;20076;-70
2022/05/27 08:27:30;;;;;;;1.88;1.38;;;;;;;24.68;31.31;97588.53;5007466;28;20108;-70
2022/05/27 08:29:56;;;;;;;2.55;1.48;;;;;;;25.54;30.21;97589.66;5007264;28;20034;-70
2022/05/27 08:32:22;;;;;;;1.70;1.42;;;;;;;26.08;29.55;97605.91;5007275;28;20038;-69
2022/05/27 08:40:36;;;;;;;4.70;1.30;;;;;;;24.67;31.39;97595.09;5006928;28;20443;-69
2022/05/27 08:43:23;;;;;;;6.28;1.60;;;;;;;25.46;30.47;97593.09;4991300;28;20096;-70
2022/05/27 08:45:58;;;;;;;2.00;1.50;;;;;;;26.14;28.81;97588.34;5008700;28;20046;-70
2022/05/27 08:48:26;;;;;;;4.50;1.60;;;;;;;27.54;27.23;97605.72;5024412;28;20082;-70
2022/05/27 08:50:57;;;;;;;2.85;1.80;;;;;;;27.69;26.52;97602.59;5010958;28;20045;-70
2022/05/27 08:53:32;;;;;;;2.25;1.80;;;;;;;28.21;24.97;97617.94;4962562;28;20041;-70
2022/05/27 08:59:28;;;;;;;4.90;1.98;;;;;;;29.39;23.57;97609.91;5010264;28;20491;-70
2022/05/27 09:02:18;;;;;;;1.90;1.30;;;;;;;29.37;23.51;97612.97;5011813;28;20040;-69
2022/05/27 09:05:21;;;;;;;3.60;1.63;;;;;;;29.15;23.89;97606.97;5011421;28;20056;-70
2022/05/27 09:08:00;;;;;;;3.92;1.80;;;;;;;28.70;24.40;97606.56;4946410;28;20140;-70
2022/05/27 09:11:21;;;;;;;;;;;;;;;;;;;;;
2022/05/27 09:13:56;;;;;;;3.20;1.60;;;;;;;28.09;23.59;97604.13;4993964;28;20054;-70
2022/05/27 09:16:30;;;;;;;2.53;1.50;;;;;;;27.41;25.08;97612.13;4994234;28;20045;-70
2022/05/27 09:19:13;;;;;;;2.15;1.52;;;;;;;27.67;25.33;97604.81;5026620;28;20423;-70
2022/05/27 09:21:48;;;;;;;3.05;1.60;;;;;;;28.50;24.24;97623.59;4992795;28;20096;-67
2022/05/27 09:24:17;;;;;;;1.63;1.50;;;;;;;29.19;23.99;97627.03;5010204;28;20053;-66
2022/05/27 09:27:06;;;;;;;1.80;1.60;;;;;;;29.35;22.76;97612.50;5011377;28;20053;-67
2022/05/27 09:29:51;;;;;;;5.20;1.80;;;;;;;28.99;23.42;97624.97;4993938;28;20045;-66
2022/05/27 09:32:38;;;;;;;6.90;1.40;;;;;;;29.42;22.79;97625.66;5010512;28;20686;-66
2022/05/27 09:35:10;;;;;;;3.17;1.63;;;;;;;29.64;22.52;97622.72;4994102;28;20050;-66
2022/05/27 09:37:44;;;;;;;1.98;1.75;;;;;;;29.51;22.89;97635.44;5009799;28;20096;-66
2022/05/27 09:40:35;;;;;;;4.70;1.33;;;;;;;28.53;23.52;97622.13;5010256;28;20471;-66
2022/05/27 09:43:08;;;;;;;5.18;1.50;;;;;;;27.92;24.18;97632.19;4961476;28;20080;-66
2022/05/27 09:45:35;;;;;;;4.10;1.40;;;;;;;27.18;25.45;97622.25;5009415;28;20045;-66
2022/05/27 09:48:04;;;;;;;3.83;1.38;;;;;;;25.72;26.40;97600.41;5010044;28;20045;-66
2022/05/27 09:50:47;;;;;;;2.95;1.50;;;;;;;25.48;28.15;97616.13;4978143;28;20044;-65
2022/05/27 09:53:23;;;;;;;4.78;1.50;;;;;;;25.44;28.08;97619.75;5026813;28;20113;-65
2022/05/27 09:55:53;;;;;;;1.55;1.27;;;;;;;25.14;28.45;97615.66;4993338;28;20229;-66
2022/05/27 09:58:27;;;;;;;1.95;1.23;;;;;;;25.87;27.20;97623.75;5010001;28;20073;-66
2022/05/27 10:00:53;;;;;;;1.90;1.35;;;;;;;25.57;27.86;97629.84;5010041;28;20050;-66
2022/05/27 10:03:28;;;;;;;1.88;1.30;;;;;;;25.20;28.48;97603.59;5010048;28;20045;-65
2022/05/27 10:06:03;;;;;;;1.90;1.27;;;;;;;24.37;30.01;97635.44;5010978;28;20499;-66
2022/05/27 10:08:35;;;;;;;2.13;1.30;;;;;;;23.59;31.22;97620.78;5011017;28;20557;-67
2022/05/27 10:11:13;;;;;;;3.08;1.67;;;;;;;23.20;32.82;97632.56;4976816;28;20137;-67
2022/05/27 10:13:41;;;;;;;3.45;1.13;;;;;;;23.21;32.09;97603.56;4976502;28;20088;-68
2022/05/27 10:16:21;;;;;;;2.05;1.20;;;;;;;23.49;32.42;97618.19;5010788;28;20050;-68
2022/05/27 10:18:47;;;;;;;3.85;1.80;;;;;;;23.65;32.25;97614.97;5009375;28;20499;-68
2022/05/27 10:21:17;;;;;;;1.50;1.40;;;;;;;23.72;31.73;97622.78;5008128;28;20046;-67
2022/05/27 10:23:46;;;;;;;2.60;1.33;;;;;;;23.63;32.08;97592.81;5010900;28;20069;-68
2022/05/27 10:26:35;;;;;;;1.70;1.50;;;;;;;23.57;33.26;97629.16;5009503;28;20088;-69
2022/05/27 10:29:12;;;;;;;6.20;1.40;;;;;;;22.28;39.61;97649.03;4977218;28;20076;-71
2022/05/27 10:31:49;;;;;;;6.32;1.70;;;;;;;21.79;41.93;97650.94;4961284;28;20041;-72
2022/05/27 10:34:39;;;;;;;2.90;1.40;;;;;;;21.80;43.58;97660.66;5009647;28;20048;-71
2022/05/27 10:37:28;;;;;;;5.72;1.88;;;;;;;22.90;44.12;97657.22;4992938;28;20053;-72
2022/05/27 10:40:35;;;;;;;5.43;1.80;;;;;;;25.83;40.55;97667.06;5009790;28;20057;-72
2022/05/27 10:43:19;;;;;;;8.07;1.63;;;;;;;27.43;34.44;97664.41;5024695;28;20510;-73
2022/05/27 10:45:49;;;;;;;1.75;1.00;;;;;;;27.77;30.36;97659.88;5008641;28;20115;-73
2022/05/27 10:48:36;;;;;;;1.58;1.02;;;;;;;27.49;30.92;97671.34;5008479;28;20038;-71
2022/05/27 10:51:25;;;;;;;3.60;1.08;;;;;;;26.84;32.08;97662.91;4976427;28;20054;-72
2022/05/27 10:54:15;;;;;;;5.07;1.30;;;;;;;26.27;34.52;97680.03;4976238;28;20054;-71
2022/05/27 10:56:44;;;;;;;4.40;1.50;;;;;;;25.50;34.53;97671.00;5009095;28;20046;-70
2022/05/27 11:03:18;;;;;;;6.68;1.30;;;;;;;24.82;34.36;97672.72;4989537;28;20420;-70
2022/05/27 11:05:52;;;;;;;3.15;1.40;;;;;;;24.60;34.45;97673.31;4990298;28;20068;-71
2022/05/27 11:08:30;;;;;;;2.53;1.52;;;;;;;24.43;34.37;97692.03;4990792;28;20094;-71
2022/05/27 11:11:08;;;;;;;2.60;1.00;;;;;;;24.08;34.33;97689.81;4972773;28;20077;-71
2022/05/27 11:17:01;;;;;;;1.92;0.68;;;;;;;23.92;33.34;97706.56;4989084;28;20296;-71
2022/05/27 11:19:53;;;;;;;1.80;0.63;;;;;;;24.39;32.76;97711.91;4988955;28;20153;-71
2022/05/27 11:22:40;;;;;;;1.38;0.90;;;;;;;24.60;32.32;97711.31;4988177;28;20526;-71
2022/05/27 11:25:30;;;;;;;2.75;1.00;;;;;;;24.31;32.23;97704.47;4957158;28;20397;-73
2022/05/27 11:28:33;;;;;;;2.53;0.75;;;;;;;24.20;33.25;97692.91;4940856;28;20141;-71
2022/05/27 11:31:12;;;;;;;1.38;0.80;;;;;;;24.54;33.02;97684.56;4972519;28;20081;-70
2022/05/27 11:34:19;;;;;;;1.52;0.80;;;;;;;24.85;32.79;97693.88;4972376;28;20128;-71
2022/05/27 11:37:07;;;;;;;2.88;0.82;;;;;;;25.21;32.22;97685.91;4938981;28;20476;-70
2022/05/27 11:39:52;;;;;;;3.45;0.90;;;;;;;25.48;32.13;97689.50;4972722;28;20065;-71
2022/05/27 11:43:00;;;;;;;3.80;0.98;;;;;;;25.75;31.38;97692.28;5004359;28;20050;-69
2022/05/27 11:45:30;;;;;;;4.22;1.05;;;;;;;25.71;32.10;97691.25;4934179;28;20193;-71
2022/05/27 11:47:58;;;;;;;2.45;0.98;;;;;;;25.71;32.14;97693.97;4970739;28;20125;-71
2022/05/27 11:50:45;;;;;;;3.95;1.00;;;;;;;25.22;32.92;97685.63;4989596;28;20046;-71
2022/05/27 11:53:20;;;;;;;2.58;0.98;;;;;;;25.24;32.22;97697.00;4989889;28;20038;-70
2022/05/27 11:55:55;;;;;;;2.00;1.00;;;;;;;24.60;32.80;97705.13;4988746;28;20504;-70
2022/05/27 11:58:42;;;;;;;1.25;1.05;;;;;;;24.20;35.00;97700.25;4988504;28;20054;-71
2022/05/27 12:01:17;;;;;;;1.55;0.90;;;;;;;23.72;36.58;97693.25;4972498;28;20419;-72
2022/05/27 12:03:55;;;;;;;3.28;1.02;;;;;;;23.87;36.32;97688.44;4971992;28;20069;-71
2022/05/27 12:06:44;;;;;;;1.98;0.98;;;;;;;24.12;35.57;97695.47;4972939;28;20034;-72
2022/05/27 12:09:22;;;;;;;3.03;1.05;;;;;;;24.37;34.94;97706.00;5005796;28;20042;-72
2022/05/27 12:12:10;;;;;;;2.65;1.00;;;;;;;24.72;35.11;97697.34;4971643;28;20054;-71
2022/05/27 12:14:43;;;;;;;2.97;0.90;;;;;;;24.52;33.70;97712.00;4989354;28;20046;-71
2022/05/27 12:17:13;;;;;;;2.22;1.10;;;;;;;24.46;32.83;97696.09;4991249;28;20053;-72
2022/05/27 12:19:42;;;;;;;2.65;1.30;;;;;;;24.49;33.03;97699.00;5015577;28;20053;-72
2022/05/27 12:22:22;;;;;;;2.33;1.50;;;;;;;24.97;32.32;97696.91;4999381;28;20126;-71
2022/05/27 12:24:55;;;;;;;2.00;1.30;;;;;;;25.13;32.56;97709.16;5020915;28;20076;-72
2022/05/27 12:27:21;;;;;;;4.22;1.23;;;;;;;24.85;32.92;97721.84;5017193;28;20033;-72
2022/05/27 12:29:50;;;;;;;2.28;1.35;;;;;;;24.84;34.48;97714.81;5003884;28;20049;-71
2022/05/27 12:32:17;;;;;;;2.25;1.30;;;;;;;24.51;36.22;97707.66;5004091;28;20041;-71